Sie sind vermutlich noch nicht im Forum angemeldet - Klicken Sie hier um sich kostenlos anzumelden  

Synchrondatenbank (von Arne Kaul) | Deutsche Synchronkartei | Seriensynchron - SeSyDaB | dubDB | Die vergessenen Filme || Datenschutz
Sie können sich hier anmelden
Dieses Forum hat 3.363 Themen
und zur Zeit 39.479 Beiträge
Sie haben keine Schreibrechte
 Spielfilme 1990 bis 2009  »Neues Thema erstellen«
Forum Information
   Betreff Absender Antworten Zugriffe Letzter Beitrag
Aktion Mutante (ES 1993) Wilkins 7 361 27.05.2018 03:04
"In the Cut" [SPEKULATION] (1, 2) Hendrik Meyerhof 23 1.282 25.05.2018 02:41
Highlander 3-5 Torben 4 209 23.05.2018 00:21
Mars Attacks! (USA 1996) VanToby 4 263 22.05.2018 16:58
Shadow of the Vampire (2000) Wilkins 4 278 20.05.2018 14:07
Code Condor (I 1990) Silenzio 0 126 18.05.2018 23:45
Der Dummschwätzer (USA 1997) VanToby 4 271 13.05.2018 23:04
Love & a .45 (1994) dlh 3 327 01.05.2018 10:26
Hot Shots 1+2 (USA 1991-1993) (1, 2) VanToby 26 2.447 30.04.2018 22:27
Küss den Frosch (The Princess And The Frog; USA, 2009) (1, 2, 3, 4, 5, 6, Letzte Seite) Isch 137 10.865 29.04.2018 15:57
Direct Hit - Im Todeskreis der Angst (USA 1994) Silenzio 0 110 26.04.2018 23:26
Bill & Teds verrückte Reise in die Zukunft (1991) dlh 12 639 25.04.2018 17:03
The Last Match - Der letzte Fight (I/USA 1991) Silenzio 0 142 22.04.2018 22:40
Dario Argentos "Sleepless" (2001) (1, 2) Slartibartfast 16 828 21.04.2018 11:42
Serial Mom - Warum lässt Mama das Morden nicht? (1993) dlh 6 615 19.04.2018 18:45
Story Of Ricky (1, 2) ElEf 23 1.311 17.04.2018 15:41
Prayers for Bobby (2008; DF: 2009) Frank Brenner 2 187 17.04.2018 15:24
Bolt - Ein Hund für alle Fälle (2008) Frank Brenner 11 1.522 15.04.2018 13:09
LOONEY TUNES Back In Action neusynchrosmachenalleskaputt 14 1.344 10.04.2018 15:47
Breaking the Waves (DK/NO/SE/FR/NL 1996) Silenzio 3 127 10.04.2018 01:22
Freundschaft, Liebe, Rache (Vento di mare) Gianfranco Mingozzi 1991 kogenta 0 104 10.04.2018 01:13
Lapitch, der kleine Schuhmacher (D/HR 1997) Edigrieg 5 191 08.04.2018 19:41
Power Rangers - Der Film (USA, 1995) hudemx 12 518 04.04.2018 17:46
Bube, Dame, Koenig grAS (Lock, stock and two smoking barrels, GB) rote Blume 13 1.399 04.04.2018 10:28
Hellraiser III: Hell on Earth (1992) WasGehtSieDasAn 11 750 30.03.2018 19:30
Mr. Jones (USA 1993) Silenzio 0 153 26.03.2018 22:24
Teuflisch (USA 2000) VanToby 3 204 26.03.2018 01:37
2 Tage in L.A. (USA 1996) Wilkins 0 155 25.03.2018 17:08
Barbie als Prinzessin und das Dorfmädchen Besetzungsliste Mew Mew 1 1.247 21.03.2018 21:41
Die Asche meiner Mutter (1999; DF: 2000) Frank Brenner 3 221 20.03.2018 20:14
Nightmare Lover (USA 1993) Silenzio 5 229 19.03.2018 02:09
Bernard & Bianca im Känguruland (1990) Edigrieg 3 376 17.03.2018 12:49
The Invincible Iron Man (2007) hudemx 1 333 16.03.2018 12:24
August (1995; DF: 1996) Frank Brenner 6 348 14.03.2018 16:30
Fires Within (USA 1991) Silenzio 0 152 13.03.2018 00:36
Die Borgia (2006) Torben 2 174 12.03.2018 23:32
Jeanne d'Arc - Die Frau des Jahrtausends (1999) Torben 3 275 12.03.2018 18:34
The Skulls 3, am Samstag 12.04. Das Auge 6 583 09.03.2018 16:14
Timber Falls (USA 2007) Mew Mew 4 580 05.03.2018 00:40
Meine ... und ich (3 Filme) VanToby 5 440 04.03.2018 22:52
 Sprung Seite « zurück  1 - 4  5  6  7  8  9  10  11 - 85  weiter »

Farb-Legende: blau = Spekulation, orange = Trailer-Besetzung, grün = endgültige Besetzung, rot = Korrektur/Ergänzung zur endgültigen Besetzung

Wir lieben Synchron.
Erreichbar unter
215072.homepagemodules.de -- forum.serien-synchron.de

Weitere Smileys auf www.smilie-harvester.de
Xobor Forum Software von Xobor | Forum, Fotos, Chat und mehr mit Xobor